Time;durP1;ratioP1;P1;durP2;ratioP2;P2;SDS_P1;SDS_P2;PMS_P1;PMS_P2;Temp;Humidity;BMP_temperature;BMP_pressure;BME280_temperature;BME280_humidity;BME280_pressure;Samples;Min_cycle;Max_cycle;Signal;HPM_P1;HPM_P2
2023/07/16 00:01:53;;;;;;;1.90;1.67;;;;;;;25.51;49.09;97165.31;5001564;28;20574;-28
2023/07/16 00:04:20;;;;;;;2.87;2.00;;;;;;;25.50;49.19;97163.63;5006340;28;20202;-31
2023/07/16 00:06:46;;;;;;;2.17;1.97;;;;;;;25.50;48.83;97149.88;5012300;28;20287;-28
2023/07/16 00:09:13;;;;;;;2.87;1.90;;;;;;;25.50;49.03;97155.03;5000512;28;20213;-28
2023/07/16 00:11:39;;;;;;;3.10;1.87;;;;;;;25.50;48.94;97147.31;5001298;28;20285;-28
2023/07/16 00:14:06;;;;;;;2.67;1.90;;;;;;;25.49;49.20;97132.72;4989646;28;20245;-29
2023/07/16 00:16:32;;;;;;;2.30;2.10;;;;;;;25.48;49.59;97097.53;5009802;28;20198;-28
2023/07/16 00:18:59;;;;;;;2.57;1.77;;;;;;;25.48;49.10;97084.66;5009797;28;20248;-29
2023/07/16 00:21:26;;;;;;;2.10;1.90;;;;;;;25.46;49.09;97087.22;5011800;28;20218;-28
2023/07/16 00:23:52;;;;;;;2.07;1.83;;;;;;;25.48;49.11;97077.81;5012671;28;20203;-29
2023/07/16 00:26:19;;;;;;;2.80;1.93;;;;;;;25.48;49.00;97075.25;4994684;28;20209;-36
2023/07/16 00:28:45;;;;;;;2.03;1.60;;;;;;;25.48;49.34;97084.66;5016089;28;20190;-29
2023/07/16 00:31:12;;;;;;;2.03;1.77;;;;;;;25.48;49.46;97102.69;5014387;28;20222;-29
2023/07/16 00:33:39;;;;;;;2.97;2.03;;;;;;;25.48;49.34;97116.41;5012204;28;20201;-28
2023/07/16 00:36:05;;;;;;;2.20;2.00;;;;;;;25.48;49.31;97133.56;5005397;28;20252;-29
2023/07/16 00:38:32;;;;;;;2.27;1.90;;;;;;;25.49;49.16;97166.19;5005016;28;20207;-28
2023/07/16 00:40:59;;;;;;;2.07;1.70;;;;;;;25.48;49.35;97179.88;5010382;28;20291;-28
2023/07/16 00:43:25;;;;;;;2.13;1.90;;;;;;;25.49;49.23;97189.34;5012604;28;20203;-29
2023/07/16 00:45:52;;;;;;;1.90;1.70;;;;;;;25.50;49.58;97224.50;5007703;28;20198;-28
2023/07/16 00:48:18;;;;;;;3.10;1.77;;;;;;;25.49;49.28;97230.50;4987401;28;20207;-29
2023/07/16 00:50:45;;;;;;;1.93;1.70;;;;;;;25.48;49.21;97242.50;5005898;28;20226;-29
2023/07/16 00:53:12;;;;;;;2.28;1.90;;;;;;;25.50;49.59;97242.50;5024449;28;20556;-29
2023/07/16 00:55:38;;;;;;;1.90;1.70;;;;;;;25.50;49.49;97268.25;5013385;28;20202;-28
2023/07/16 00:58:06;;;;;;;2.80;1.80;;;;;;;25.49;49.26;97293.09;4988032;28;20256;-29
2023/07/16 01:00:37;;;;;;;3.57;1.73;;;;;;;25.50;49.35;97307.72;5010335;28;20223;-28
2023/07/16 01:03:05;;;;;;;2.10;1.90;;;;;;;25.50;49.44;97319.72;5006544;28;20214;-29
2023/07/16 01:05:39;;;;;;;1.73;1.63;;;;;;;25.49;49.70;97321.41;4987874;28;20596;-28
2023/07/16 01:08:07;;;;;;;2.10;1.70;;;;;;;25.51;49.34;97335.16;5007263;28;20589;-29
2023/07/16 01:10:33;;;;;;;2.13;1.83;;;;;;;25.49;49.28;97336.00;4973161;28;20222;-29
2023/07/16 01:13:00;;;;;;;1.60;1.50;;;;;;;25.50;49.34;97341.16;4967240;28;20203;-28
2023/07/16 01:15:27;;;;;;;2.33;1.80;;;;;;;25.51;49.29;97355.75;4980098;28;20202;-28
2023/07/16 01:17:53;;;;;;;2.53;1.90;;;;;;;25.52;49.29;97364.34;5000723;28;20207;-29
2023/07/16 01:20:20;;;;;;;2.37;1.93;;;;;;;25.52;49.22;97361.78;5017130;28;20708;-28
2023/07/16 01:23:13;;;;;;;1.93;1.70;;;;;;;25.49;49.43;97366.88;5005838;28;20286;-28
2023/07/16 01:25:58;;;;;;;1.70;1.60;;;;;;;25.51;49.65;97381.47;5027335;28;20202;-29
2023/07/16 01:28:49;;;;;;;2.17;1.70;;;;;;;25.51;49.63;97373.75;5012841;28;20206;-29
2023/07/16 01:31:17;;;;;;;1.60;1.50;;;;;;;25.52;49.53;97348.91;5009859;28;20222;-28
2023/07/16 01:33:44;;;;;;;3.37;1.70;;;;;;;25.50;49.25;97330.88;4991246;28;20202;-28
2023/07/16 01:36:10;;;;;;;1.90;1.53;;;;;;;25.50;49.56;97336.03;4992621;28;20200;-28
2023/07/16 01:38:37;;;;;;;2.77;1.60;;;;;;;25.48;49.40;97342.84;4973878;28;20239;-28
2023/07/16 01:41:03;;;;;;;1.70;1.60;;;;;;;25.47;49.78;97348.84;4989611;28;20221;-28
2023/07/16 01:43:30;;;;;;;1.70;1.60;;;;;;;25.48;49.66;97375.44;4990140;28;20203;-30
2023/07/16 01:45:56;;;;;;;1.60;1.50;;;;;;;25.47;49.53;97389.16;5002604;28;20273;-28
2023/07/16 01:48:33;;;;;;;1.50;1.40;;;;;;;25.46;49.70;97377.97;5009051;28;20235;-29
2023/07/16 01:50:59;;;;;;;2.30;1.63;;;;;;;25.45;49.47;97362.53;5009660;28;20676;-29
2023/07/16 01:53:26;;;;;;;1.97;1.50;;;;;;;25.45;49.72;97370.25;5015687;28;20206;-28
2023/07/16 01:55:52;;;;;;;3.07;1.73;;;;;;;25.45;49.77;97380.53;5008389;28;20203;-28
2023/07/16 01:58:19;;;;;;;1.60;1.50;;;;;;;25.43;49.60;97403.69;5002599;28;20735;-29
2023/07/16 02:00:46;;;;;;;2.33;1.70;;;;;;;25.45;49.51;97401.13;5011934;28;20299;-29
2023/07/16 02:03:12;;;;;;;2.50;1.70;;;;;;;25.44;49.75;97389.13;5008008;28;20202;-31
2023/07/16 02:05:39;;;;;;;1.90;1.53;;;;;;;25.43;49.84;97377.09;5011113;28;20294;-31
2023/07/16 02:08:06;;;;;;;1.90;1.70;;;;;;;25.41;50.02;97384.81;5010996;28;20198;-29
2023/07/16 02:10:32;;;;;;;5.27;2.07;;;;;;;25.42;49.72;97388.22;5018343;28;20661;-28
2023/07/16 02:12:59;;;;;;;1.93;1.70;;;;;;;25.42;49.80;97403.66;5000931;28;20214;-34
2023/07/16 02:15:26;;;;;;;1.83;1.70;;;;;;;25.41;49.63;97413.13;5009987;28;20202;-29
2023/07/16 02:17:52;;;;;;;1.60;1.50;;;;;;;25.41;49.81;97418.25;5021289;28;20198;-28
2023/07/16 02:20:19;;;;;;;1.97;1.70;;;;;;;25.37;49.96;97434.47;5012816;28;20328;-28
2023/07/16 02:22:45;;;;;;;1.87;1.67;;;;;;;25.41;49.79;97451.72;5008937;28;20205;-34
2023/07/16 02:25:12;;;;;;;2.13;1.80;;;;;;;25.43;50.10;97472.31;5007355;28;20756;-29
2023/07/16 02:27:39;;;;;;;1.60;1.50;;;;;;;25.43;49.95;97472.31;5010897;28;20198;-28
2023/07/16 02:30:06;;;;;;;1.90;1.70;;;;;;;25.42;49.72;97448.28;5004803;28;20572;-28
2023/07/16 02:32:34;;;;;;;1.53;1.40;;;;;;;25.43;50.08;97434.56;5005391;28;20250;-29
2023/07/16 02:35:01;;;;;;;1.50;1.40;;;;;;;25.41;50.17;97423.41;5010905;28;20281;-28
2023/07/16 02:37:28;;;;;;;1.80;1.60;;;;;;;25.43;49.73;97421.69;5015213;28;20194;-29
2023/07/16 02:39:55;;;;;;;1.60;1.50;;;;;;;25.43;49.88;97411.41;5002269;28;20293;-29
2023/07/16 02:42:21;;;;;;;2.07;1.70;;;;;;;25.40;50.06;97420.81;5008692;28;20571;-29
2023/07/16 02:44:48;;;;;;;3.40;1.70;;;;;;;25.40;50.29;97439.66;5002315;28;20621;-32
2023/07/16 02:47:14;;;;;;;1.60;1.50;;;;;;;25.44;49.88;97467.19;5006499;28;20202;-28
2023/07/16 02:49:41;;;;;;;1.53;1.30;;;;;;;25.44;50.02;97476.59;5007877;28;20245;-29
2023/07/16 02:52:08;;;;;;;2.17;1.70;;;;;;;25.45;49.75;97489.50;5012645;28;20579;-29
2023/07/16 02:54:37;;;;;;;1.70;1.40;;;;;;;25.45;50.03;97486.91;5018300;28;20578;-28
2023/07/16 02:57:05;;;;;;;1.50;1.40;;;;;;;25.45;50.07;97476.63;5015050;28;20203;-29
2023/07/16 02:59:31;;;;;;;1.60;1.50;;;;;;;25.35;50.01;97453.31;4999426;28;20223;-28
2023/07/16 03:01:58;;;;;;;1.70;1.60;;;;;;;25.45;50.10;97476.63;5017821;28;20198;-28
2023/07/16 03:04:25;;;;;;;1.73;1.40;;;;;;;25.46;49.90;97480.06;5009739;28;20672;-28
2023/07/16 03:06:51;;;;;;;1.43;1.33;;;;;;;25.47;50.05;97467.22;5009828;28;20209;-29
2023/07/16 03:09:18;;;;;;;1.87;1.60;;;;;;;25.47;49.93;97450.91;5011725;28;20199;-28
2023/07/16 03:11:44;;;;;;;1.43;1.33;;;;;;;25.48;50.22;97460.34;5003379;28;20229;-28
2023/07/16 03:14:11;;;;;;;1.80;1.60;;;;;;;25.46;50.21;97444.03;5017145;28;20205;-28
2023/07/16 03:16:38;;;;;;;1.80;1.63;;;;;;;25.46;50.14;97450.03;5003286;28;20213;-32
2023/07/16 03:19:05;;;;;;;1.83;1.40;;;;;;;25.47;49.83;97461.22;5008051;28;20234;-28
2023/07/16 03:21:32;;;;;;;1.90;1.50;;;;;;;25.47;49.99;97458.63;5001006;28;20206;-29
2023/07/16 03:23:59;;;;;;;2.23;1.53;;;;;;;25.46;49.81;97438.91;4991770;28;20258;-28
2023/07/16 03:26:25;;;;;;;1.70;1.60;;;;;;;25.46;50.10;97437.16;5004643;28;20206;-29
2023/07/16 03:28:52;;;;;;;1.50;1.30;;;;;;;25.46;49.82;97436.31;5002409;28;20245;-28
2023/07/16 03:31:18;;;;;;;1.97;1.73;;;;;;;25.44;50.00;97422.56;5006235;28;20239;-29
2023/07/16 03:33:45;;;;;;;2.20;1.50;;;;;;;25.45;49.97;97412.28;5011528;28;20202;-28
2023/07/16 03:36:12;;;;;;;1.87;1.43;;;;;;;25.44;50.22;97417.41;5005597;28;20203;-29
2023/07/16 03:38:39;;;;;;;1.37;1.27;;;;;;;25.44;50.11;97432.84;5009224;28;20233;-29
2023/07/16 03:41:05;;;;;;;1.50;1.40;;;;;;;25.43;49.94;97419.13;5005372;28;20261;-29
2023/07/16 03:43:32;;;;;;;1.93;1.70;;;;;;;25.41;50.18;97432.81;5009628;28;20696;-29
2023/07/16 03:45:58;;;;;;;2.00;1.50;;;;;;;25.42;50.18;97447.41;4998240;28;20692;-28
2023/07/16 03:48:25;;;;;;;1.77;1.67;;;;;;;25.41;49.97;97455.97;5008779;28;20746;-29
2023/07/16 03:50:51;;;;;;;1.67;1.57;;;;;;;25.41;49.96;97459.44;5003255;28;20214;-33
2023/07/16 03:53:18;;;;;;;1.50;1.40;;;;;;;25.40;50.30;97465.41;5011513;28;20226;-28
2023/07/16 03:55:44;;;;;;;1.50;1.40;;;;;;;25.40;50.17;97455.09;5002594;28;20719;-28
2023/07/16 03:58:11;;;;;;;1.60;1.50;;;;;;;25.40;50.45;97459.41;5008207;28;20198;-28
2023/07/16 04:00:37;;;;;;;1.50;1.40;;;;;;;25.38;50.59;97461.09;5011238;28;20281;-30
2023/07/16 04:03:04;;;;;;;1.60;1.50;;;;;;;25.39;50.34;97471.41;5007053;28;20191;-31
2023/07/16 04:05:31;;;;;;;1.50;1.40;;;;;;;25.39;50.52;97481.69;5013711;28;20256;-28
2023/07/16 04:07:57;;;;;;;1.40;1.30;;;;;;;25.39;50.15;97481.69;5010649;28;20733;-29
2023/07/16 04:10:24;;;;;;;1.53;1.43;;;;;;;25.38;50.55;97489.38;5005086;28;20310;-29
2023/07/16 04:12:50;;;;;;;1.60;1.30;;;;;;;25.38;50.56;97490.25;5012908;28;20222;-29
2023/07/16 04:15:17;;;;;;;1.50;1.40;;;;;;;25.38;50.22;97492.84;5013810;28;20629;-29
2023/07/16 04:17:44;;;;;;;1.47;1.30;;;;;;;25.39;50.43;97498.81;5007368;28;20260;-29
2023/07/16 04:20:10;;;;;;;1.73;1.40;;;;;;;25.39;50.56;97514.25;5008159;28;20215;-28
2023/07/16 04:22:37;;;;;;;1.40;1.30;;;;;;;25.40;50.58;97510.88;5011955;28;20203;-31
2023/07/16 04:25:04;;;;;;;1.37;1.27;;;;;;;25.40;50.62;97516.84;5009719;28;20198;-28
2023/07/16 04:27:30;;;;;;;1.43;1.33;;;;;;;25.40;50.26;97503.16;5006480;28;20205;-29
2023/07/16 04:29:57;;;;;;;1.30;1.20;;;;;;;25.41;50.62;97512.59;5012945;28;20225;-28
2023/07/16 04:32:24;;;;;;;1.37;1.10;;;;;;;25.40;50.22;97521.16;5010545;28;20222;-28
2023/07/16 04:34:50;;;;;;;1.37;1.27;;;;;;;25.40;50.30;97519.44;4999063;28;20202;-28
2023/07/16 04:37:17;;;;;;;1.40;1.30;;;;;;;25.39;50.51;97530.56;5002973;28;20214;-28
2023/07/16 04:39:43;;;;;;;1.60;1.50;;;;;;;25.40;50.26;97527.16;4999752;28;20227;-29
2023/07/16 04:42:10;;;;;;;1.27;1.17;;;;;;;25.42;50.44;97532.31;5010772;28;20249;-29
2023/07/16 04:44:37;;;;;;;1.13;1.10;;;;;;;25.40;50.21;97546.88;5007537;28;20206;-28
2023/07/16 04:47:04;;;;;;;1.40;1.27;;;;;;;25.42;50.37;97555.47;5009852;28;20210;-33
2023/07/16 04:49:31;;;;;;;1.33;1.23;;;;;;;25.37;50.41;97539.97;5005942;28;20223;-28
2023/07/16 04:51:58;;;;;;;1.40;1.30;;;;;;;25.43;50.32;97549.50;5010470;28;20219;-29
2023/07/16 04:54:24;;;;;;;1.30;1.20;;;;;;;25.44;50.51;97553.78;5002692;28;20259;-29
2023/07/16 04:56:51;;;;;;;1.40;1.30;;;;;;;25.43;50.26;97567.53;5016785;28;20206;-29
2023/07/16 04:59:17;;;;;;;1.47;1.37;;;;;;;25.42;50.59;97566.63;5017045;28;20245;-28
2023/07/16 05:01:44;;;;;;;1.63;1.47;;;;;;;25.43;50.40;97564.94;5007406;28;20253;-28
2023/07/16 05:04:11;;;;;;;1.40;1.30;;;;;;;25.44;50.38;97564.97;5006999;28;20246;-29
2023/07/16 05:06:37;;;;;;;1.67;1.53;;;;;;;25.45;50.63;97570.97;5002095;28;20207;-29
2023/07/16 05:09:04;;;;;;;1.83;1.30;;;;;;;25.44;50.68;97572.69;5009466;28;20245;-32
2023/07/16 05:11:30;;;;;;;1.37;1.27;;;;;;;25.45;50.64;97569.25;5014068;28;20261;-34
2023/07/16 05:13:57;;;;;;;1.30;1.20;;;;;;;25.44;50.64;97559.81;5007644;28;20272;-29
2023/07/16 05:16:23;;;;;;;1.33;1.20;;;;;;;25.44;50.27;97575.25;5005266;28;20289;-29
2023/07/16 05:18:50;;;;;;;6.03;1.63;;;;;;;25.43;50.10;97573.50;5000972;28;20199;-28
2023/07/16 05:21:17;;;;;;;1.30;1.20;;;;;;;25.44;50.22;97566.66;5007741;28;20285;-33
2023/07/16 05:23:43;;;;;;;1.30;1.17;;;;;;;25.43;50.24;97558.06;4985220;28;20199;-29
2023/07/16 05:26:10;;;;;;;1.60;1.27;;;;;;;25.39;50.64;97560.56;5005091;28;20206;-29
2023/07/16 05:28:37;;;;;;;1.50;1.40;;;;;;;25.42;50.74;97560.63;4999269;28;20194;-28
2023/07/16 05:31:03;;;;;;;1.50;1.40;;;;;;;25.41;50.13;97562.34;5000469;28;20513;-28
2023/07/16 05:33:30;;;;;;;1.33;1.23;;;;;;;25.41;50.70;97569.19;5007979;28;20330;-29
2023/07/16 05:35:57;;;;;;;1.40;1.30;;;;;;;25.40;50.46;97576.03;5000761;28;20631;-28
2023/07/16 05:38:23;;;;;;;1.50;1.40;;;;;;;25.40;50.35;97588.06;4998462;28;20253;-28
2023/07/16 05:40:50;;;;;;;1.50;1.40;;;;;;;25.36;50.68;97575.97;5006628;28;20611;-29
2023/07/16 05:43:17;;;;;;;1.40;1.30;;;;;;;25.40;50.81;97573.47;5011998;28;20199;-29
2023/07/16 05:45:43;;;;;;;1.60;1.50;;;;;;;25.36;50.62;97578.53;5006492;28;20644;-29
2023/07/16 05:48:10;;;;;;;1.87;1.30;;;;;;;25.40;51.00;97581.19;5010793;28;20643;-28
2023/07/16 05:50:37;;;;;;;1.40;1.30;;;;;;;25.40;51.09;97588.91;5008225;28;20223;-30
2023/07/16 05:53:03;;;;;;;1.30;1.20;;;;;;;25.38;51.04;97593.19;5007847;28;20233;-29
2023/07/16 05:55:30;;;;;;;1.40;1.30;;;;;;;25.39;50.81;97594.91;5003380;28;21948;-28
2023/07/16 05:57:56;;;;;;;1.30;1.20;;;;;;;25.39;50.77;97594.03;5005062;28;20666;-28
2023/07/16 06:00:24;;;;;;;1.40;1.30;;;;;;;25.39;50.93;97597.47;5010383;28;20223;-29
2023/07/16 06:02:50;;;;;;;1.50;1.40;;;;;;;25.37;51.24;97596.56;5001729;28;20890;-28
2023/07/16 06:05:17;;;;;;;1.40;1.30;;;;;;;25.37;50.95;97604.28;5001006;28;20332;-32
2023/07/16 06:07:44;;;;;;;1.77;1.53;;;;;;;25.40;50.87;97608.66;4976506;28;20692;-29
2023/07/16 06:10:11;;;;;;;1.43;1.33;;;;;;;25.39;50.99;97607.78;4992162;28;20219;-29
2023/07/16 06:12:37;;;;;;;1.47;1.33;;;;;;;25.40;50.87;97613.78;4995181;28;20248;-38
2023/07/16 06:15:04;;;;;;;1.30;1.20;;;;;;;25.41;51.13;97613.81;4995409;28;20214;-40
2023/07/16 06:17:31;;;;;;;1.63;1.53;;;;;;;25.41;50.83;97621.53;4992366;28;20247;-28
2023/07/16 06:19:57;;;;;;;1.40;1.30;;;;;;;25.41;50.70;97629.25;4994384;28;20226;-29
2023/07/16 06:22:24;;;;;;;1.63;1.43;;;;;;;25.38;50.96;97630.91;4995118;28;20674;-35
2023/07/16 06:24:51;;;;;;;1.40;1.30;;;;;;;25.36;50.83;97628.31;4994061;28;20737;-28
2023/07/16 06:27:17;;;;;;;1.30;1.20;;;;;;;25.40;51.13;97637.78;4994074;28;20214;-29
2023/07/16 06:29:44;;;;;;;1.40;1.30;;;;;;;25.41;51.12;97636.97;4996374;28;20230;-29
2023/07/16 06:32:10;;;;;;;1.37;1.30;;;;;;;25.41;50.71;97641.25;4993912;28;20279;-32
2023/07/16 06:34:37;;;;;;;1.40;1.30;;;;;;;25.42;51.13;97653.25;4996257;28;20211;-29
2023/07/16 06:37:04;;;;;;;1.40;1.30;;;;;;;25.40;51.29;97645.50;4993502;28;22448;-28
2023/07/16 06:39:31;;;;;;;1.40;1.30;;;;;;;25.42;51.07;97649.00;4992365;28;20234;-29
2023/07/16 06:41:58;;;;;;;1.53;1.40;;;;;;;25.43;50.78;97648.13;4994384;28;20214;-29
2023/07/16 06:44:24;;;;;;;1.50;1.40;;;;;;;25.43;50.85;97652.44;4991172;28;20206;-30
2023/07/16 06:46:51;;;;;;;1.40;1.30;;;;;;;25.43;51.06;97655.00;4994481;28;20203;-29
2023/07/16 06:49:17;;;;;;;1.30;1.20;;;;;;;25.43;51.15;97655.84;4992045;28;20637;-28
2023/07/16 06:51:44;;;;;;;1.47;1.37;;;;;;;25.43;50.74;97661.00;5003652;28;20416;-29
2023/07/16 06:54:11;;;;;;;1.40;1.30;;;;;;;25.43;50.83;97661.00;4996200;28;20273;-29
2023/07/16 06:56:37;;;;;;;1.10;1.10;;;;;;;25.45;50.90;97654.19;5008125;28;20210;-29
2023/07/16 06:59:04;;;;;;;1.87;1.20;;;;;;;25.44;51.15;97661.88;5002649;28;20195;-28
2023/07/16 07:01:31;;;;;;;1.40;1.20;;;;;;;25.45;50.88;97667.03;4999905;28;20242;-28
2023/07/16 07:03:57;;;;;;;1.40;1.30;;;;;;;25.45;51.04;97669.63;5004540;28;20202;-32
2023/07/16 07:06:24;;;;;;;1.33;1.23;;;;;;;25.45;50.96;97661.03;5001050;28;20199;-28
2023/07/16 07:08:51;;;;;;;1.40;1.13;;;;;;;25.45;51.18;97655.88;5008869;28;20206;-29
2023/07/16 07:11:18;;;;;;;1.30;1.20;;;;;;;25.44;50.88;97659.31;5010768;28;20567;-29
2023/07/16 07:13:45;;;;;;;1.33;1.10;;;;;;;25.44;51.07;97664.44;5005266;28;20248;-28
2023/07/16 07:16:12;;;;;;;1.00;1.00;;;;;;;25.43;51.28;97668.72;4997904;28;20199;-29
2023/07/16 07:18:38;;;;;;;1.60;1.50;;;;;;;25.44;51.31;97664.44;5002015;28;20206;-28
2023/07/16 07:21:05;;;;;;;1.70;1.20;;;;;;;25.43;51.31;97657.59;4998934;28;20638;-29
2023/07/16 07:23:31;;;;;;;1.47;1.37;;;;;;;25.42;51.15;97663.53;5004681;28;20221;-29
2023/07/16 07:25:59;;;;;;;1.20;1.10;;;;;;;25.41;51.30;97654.97;5011610;28;20195;-29
2023/07/16 07:28:26;;;;;;;1.10;1.10;;;;;;;25.40;51.37;97655.81;5001257;28;20282;-29
2023/07/16 07:30:54;;;;;;;1.13;1.10;;;;;;;25.40;51.09;97663.53;4985528;28;20753;-29
2023/07/16 07:33:21;;;;;;;1.10;1.10;;;;;;;25.39;50.99;97659.22;5004164;28;20226;-29
2023/07/16 07:35:47;;;;;;;1.40;1.30;;;;;;;25.39;51.05;97669.53;5007301;28;20202;-28
2023/07/16 07:38:14;;;;;;;1.30;1.20;;;;;;;25.39;51.34;97664.38;5002550;28;20285;-28
2023/07/16 07:40:43;;;;;;;1.30;1.20;;;;;;;25.37;51.17;97668.63;5007645;28;20708;-29
2023/07/16 07:43:09;;;;;;;1.40;1.30;;;;;;;25.39;51.50;97678.94;5004236;28;20194;-29
2023/07/16 07:45:36;;;;;;;1.40;1.30;;;;;;;25.38;52.58;97678.09;4999947;28;20203;-28
2023/07/16 07:48:03;;;;;;;1.57;1.47;;;;;;;25.37;52.86;97681.47;5002103;28;20216;-30
2023/07/16 07:50:29;;;;;;;1.30;1.20;;;;;;;25.38;52.82;97674.66;5006455;28;20222;-29
2023/07/16 07:52:56;;;;;;;2.20;1.57;;;;;;;25.37;53.32;97663.47;5000791;28;20254;-29
2023/07/16 07:55:23;;;;;;;1.63;1.40;;;;;;;25.38;53.39;97678.09;5003595;28;20242;-29
2023/07/16 07:57:50;;;;;;;1.67;1.50;;;;;;;25.38;53.59;97669.50;5004207;28;20205;-29
2023/07/16 08:00:16;;;;;;;2.77;1.50;;;;;;;25.39;53.15;97664.38;5006917;28;20271;-29
2023/07/16 08:02:43;;;;;;;1.67;1.57;;;;;;;25.37;53.00;97663.47;5009878;28;20198;-29
2023/07/16 08:05:10;;;;;;;2.03;1.60;;;;;;;25.38;53.06;97660.09;5009515;28;20251;-28
2023/07/16 08:07:36;;;;;;;2.60;1.30;;;;;;;25.39;53.39;97656.66;5009933;28;20203;-28
2023/07/16 08:10:03;;;;;;;1.53;1.43;;;;;;;25.40;53.17;97642.94;5008213;28;20289;-28
2023/07/16 08:12:30;;;;;;;2.00;1.50;;;;;;;25.39;52.93;97627.47;5001496;28;20203;-28
2023/07/16 08:14:57;;;;;;;1.73;1.47;;;;;;;25.40;53.32;97631.81;5007958;28;20285;-28
2023/07/16 08:17:24;;;;;;;1.60;1.50;;;;;;;25.40;53.24;97642.94;4998270;28;20205;-29
2023/07/16 08:19:51;;;;;;;1.67;1.57;;;;;;;25.41;54.09;97643.81;5004619;28;20598;-28
2023/07/16 08:22:18;;;;;;;1.50;1.40;;;;;;;25.42;55.01;97658.41;4998184;28;20195;-29
2023/07/16 08:24:44;;;;;;;2.10;1.70;;;;;;;25.41;54.56;97667.84;4998695;28;20198;-28
2023/07/16 08:27:11;;;;;;;1.77;1.60;;;;;;;25.42;53.94;97659.28;5008172;28;20202;-33
2023/07/16 08:29:38;;;;;;;2.30;1.60;;;;;;;25.41;53.87;97660.13;5010983;28;20249;-29
2023/07/16 08:32:04;;;;;;;2.63;1.40;;;;;;;25.41;53.77;97664.41;5010205;28;20230;-28
2023/07/16 08:34:31;;;;;;;3.10;1.57;;;;;;;25.42;53.94;97653.25;4995758;28;20219;-28
2023/07/16 08:36:59;;;;;;;1.53;1.43;;;;;;;25.41;53.71;97649.84;5007003;28;20665;-28
2023/07/16 08:39:25;;;;;;;1.50;1.40;;;;;;;25.43;53.45;97644.72;4999831;28;20226;-28
2023/07/16 08:41:53;;;;;;;1.63;1.50;;;;;;;25.43;53.28;97642.13;4998734;28;20199;-29
2023/07/16 08:44:20;;;;;;;1.60;1.50;;;;;;;25.40;53.64;97640.38;5000823;28;20661;-28
2023/07/16 08:46:46;;;;;;;2.47;1.57;;;;;;;25.42;53.32;97636.13;5003657;28;20206;-28
2023/07/16 08:49:13;;;;;;;3.47;1.60;;;;;;;25.41;52.92;97646.38;5003191;28;20257;-28
2023/07/16 08:51:40;;;;;;;1.63;1.30;;;;;;;25.42;53.27;97658.41;4991249;28;20194;-29
2023/07/16 08:54:06;;;;;;;1.60;1.50;;;;;;;25.40;52.34;97660.94;4984359;28;20226;-29
2023/07/16 08:56:33;;;;;;;1.47;1.37;;;;;;;25.42;52.64;97666.13;4973007;28;20256;-29
2023/07/16 08:59:00;;;;;;;2.73;1.50;;;;;;;25.40;52.59;97658.38;5007015;28;20221;-29
2023/07/16 09:01:26;;;;;;;1.43;1.30;;;;;;;25.40;52.58;97663.53;4987536;28;20234;-28
2023/07/16 09:03:53;;;;;;;2.63;1.37;;;;;;;25.37;52.75;97654.91;4965017;28;20565;-29
2023/07/16 09:06:20;;;;;;;1.50;1.40;;;;;;;25.38;54.21;97659.19;4982215;28;20662;-29
2023/07/16 09:08:47;;;;;;;1.60;1.50;;;;;;;25.39;54.40;97672.09;5005152;28;20234;-28
2023/07/16 09:11:13;;;;;;;2.17;1.50;;;;;;;25.38;54.22;97683.25;5013510;28;20218;-29
2023/07/16 09:13:44;;;;;;;2.23;1.37;;;;;;;25.38;53.98;97669.50;5003606;28;20272;-29
2023/07/16 09:16:11;;;;;;;1.43;1.33;;;;;;;25.37;53.84;97673.75;5007288;28;20202;-29
2023/07/16 09:18:39;;;;;;;2.83;1.43;;;;;;;25.37;53.95;97672.91;5003971;28;20198;-29
2023/07/16 09:21:06;;;;;;;2.67;2.00;;;;;;;25.36;53.82;97679.75;5002339;28;20265;-28
2023/07/16 09:23:32;;;;;;;1.47;1.33;;;;;;;25.36;53.63;97687.47;4986447;28;20199;-28
2023/07/16 09:25:59;;;;;;;1.70;1.30;;;;;;;25.37;53.98;97678.06;5007726;28;20195;-29
2023/07/16 09:28:26;;;;;;;3.37;1.70;;;;;;;25.36;53.63;97681.47;5002705;28;20221;-29
2023/07/16 09:30:52;;;;;;;2.73;1.47;;;;;;;25.36;53.61;97673.75;5013038;28;20272;-28
2023/07/16 09:33:21;;;;;;;3.53;1.63;;;;;;;25.36;53.78;97672.03;5006028;28;20312;-28
2023/07/16 09:35:48;;;;;;;1.57;1.47;;;;;;;25.37;54.31;97672.91;5007702;28;20724;-29
2023/07/16 09:38:15;;;;;;;2.10;1.60;;;;;;;25.36;54.24;97677.19;5000859;28;20207;-28
2023/07/16 09:40:42;;;;;;;2.20;1.60;;;;;;;25.37;54.12;97672.91;5005212;28;20225;-29
2023/07/16 09:43:10;;;;;;;6.83;1.50;;;;;;;25.38;53.97;97666.91;5003136;28;20250;-29
2023/07/16 09:45:36;;;;;;;2.50;1.87;;;;;;;25.37;54.05;97678.91;5002572;28;20203;-29
2023/07/16 09:48:03;;;;;;;2.53;1.60;;;;;;;25.37;53.79;97668.63;4993820;28;20195;-29
2023/07/16 09:50:32;;;;;;;2.03;1.70;;;;;;;25.36;54.04;97676.31;4998955;28;20244;-36
2023/07/16 09:52:59;;;;;;;1.50;1.40;;;;;;;25.37;53.94;97680.63;5007257;28;20614;-29
2023/07/16 09:55:25;;;;;;;3.97;1.80;;;;;;;25.37;53.97;97667.78;5004894;28;20199;-29
2023/07/16 09:57:53;;;;;;;1.70;1.60;;;;;;;25.37;53.90;97667.78;5002199;28;20234;-29
2023/07/16 10:00:20;;;;;;;4.23;1.83;;;;;;;25.37;54.13;97675.50;4981146;28;20218;-28
2023/07/16 10:02:47;;;;;;;1.57;1.47;;;;;;;25.37;54.15;97673.75;5001062;28;20587;-28
2023/07/16 10:05:18;;;;;;;2.40;2.00;;;;;;;25.36;54.15;97663.44;5004752;28;20195;-28
2023/07/16 10:07:52;;;;;;;1.83;1.67;;;;;;;25.37;54.24;97660.06;5010228;28;20257;-29
2023/07/16 10:10:19;;;;;;;2.07;1.63;;;;;;;25.36;54.12;97663.44;5008484;28;20226;-29
2023/07/16 10:13:00;;;;;;;2.23;1.60;;;;;;;25.36;54.27;97658.31;5009298;28;20669;-28
2023/07/16 10:15:30;;;;;;;2.23;1.83;;;;;;;25.32;54.44;97648.78;4990442;28;20456;-29
2023/07/16 10:17:56;;;;;;;2.00;1.60;;;;;;;25.37;54.24;97647.19;5009547;28;20206;-29
2023/07/16 10:20:29;;;;;;;3.17;1.77;;;;;;;25.35;54.47;97643.72;5008431;28;20263;-28
2023/07/16 10:22:56;;;;;;;2.07;1.77;;;;;;;25.36;54.23;97637.72;5008621;28;20209;-29
2023/07/16 10:25:24;;;;;;;2.23;2.00;;;;;;;25.36;54.07;97640.28;5008629;28;20202;-29
2023/07/16 10:27:51;;;;;;;1.70;1.57;;;;;;;25.37;54.32;97649.75;5009022;28;20198;-28
2023/07/16 10:30:18;;;;;;;1.60;1.50;;;;;;;25.36;54.37;97648.00;5008205;28;20249;-31
2023/07/16 10:32:45;;;;;;;1.70;1.60;;;;;;;25.36;54.33;97648.00;5008830;28;20230;-28
2023/07/16 10:35:12;;;;;;;1.70;1.60;;;;;;;25.36;54.13;97648.00;5009014;28;20276;-31
2023/07/16 10:37:39;;;;;;;3.10;1.70;;;;;;;25.34;54.09;97645.41;5008372;28;20211;-28
2023/07/16 10:40:10;;;;;;;2.23;1.33;;;;;;;25.35;54.14;97638.56;5007636;28;20249;-29
2023/07/16 10:42:37;;;;;;;2.17;1.53;;;;;;;25.26;54.12;97621.25;5007802;28;20202;-29
2023/07/16 10:45:04;;;;;;;1.83;1.50;;;;;;;25.33;54.17;97623.09;4991183;28;20271;-28
2023/07/16 10:47:31;;;;;;;1.83;1.40;;;;;;;25.33;54.01;97630.81;5009095;28;20632;-32
2023/07/16 10:49:58;;;;;;;1.73;1.63;;;;;;;25.33;53.98;97641.13;4991348;28;20708;-34
2023/07/16 10:52:25;;;;;;;1.93;1.60;;;;;;;25.33;54.29;97640.25;5008940;28;20268;-29
2023/07/16 10:54:55;;;;;;;1.70;1.60;;;;;;;25.33;53.83;97633.41;5007188;28;20271;-28
2023/07/16 10:57:22;;;;;;;2.13;1.70;;;;;;;25.33;53.62;97637.66;5007940;28;20281;-29
2023/07/16 10:59:50;;;;;;;4.30;1.60;;;;;;;25.27;53.63;97625.56;5008947;28;20222;-29
2023/07/16 11:02:17;;;;;;;2.00;1.60;;;;;;;25.33;54.03;97643.69;5007820;28;20221;-28
2023/07/16 11:04:45;;;;;;;2.40;1.80;;;;;;;25.34;54.00;97642.00;5008457;28;20195;-29
2023/07/16 11:07:12;;;;;;;1.67;1.57;;;;;;;25.32;54.08;97641.06;5008794;28;20205;-29
2023/07/16 11:09:45;;;;;;;1.30;1.20;;;;;;;25.33;53.78;97640.25;5010302;28;20221;-29
2023/07/16 11:12:14;;;;;;;2.07;1.77;;;;;;;25.32;54.01;97631.69;5007011;28;20249;-29
2023/07/16 11:14:45;;;;;;;1.70;1.53;;;;;;;25.33;53.88;97622.22;4999439;28;20218;-29
2023/07/16 11:17:11;;;;;;;1.67;1.57;;;;;;;25.32;53.75;97630.78;5004291;28;20202;-29
2023/07/16 11:19:38;;;;;;;2.27;1.60;;;;;;;25.31;54.11;97624.75;5001456;28;20274;-28
2023/07/16 11:22:06;;;;;;;1.80;1.57;;;;;;;25.30;54.00;97623.03;5008580;28;20202;-28
2023/07/16 11:24:38;;;;;;;1.90;1.53;;;;;;;25.31;54.17;97626.47;5001739;28;20743;-29
2023/07/16 11:27:05;;;;;;;2.50;1.60;;;;;;;25.32;54.11;97621.38;5006026;28;20202;-29
2023/07/16 11:29:38;;;;;;;2.37;1.80;;;;;;;25.33;53.69;97623.09;5012503;28;20229;-29
2023/07/16 11:32:05;;;;;;;4.87;1.97;;;;;;;25.29;53.96;97620.44;5004965;28;20195;-29
2023/07/16 11:34:32;;;;;;;1.53;1.43;;;;;;;25.33;54.19;97627.38;5011268;28;20221;-28